sensor_id;sensor_type;location;lat;lon;timestamp;P1;durP1;ratioP1;P2;durP2;ratioP2
10045;SDS011;5063;50.878;4.742;2023-04-03T00:01:08;6.13;;;4.87;;
10045;SDS011;5063;50.878;4.742;2023-04-03T00:03:35;6.73;;;5.23;;
10045;SDS011;5063;50.878;4.742;2023-04-03T00:06:01;7.53;;;5.07;;
10045;SDS011;5063;50.878;4.742;2023-04-03T00:08:28;8.30;;;5.30;;
10045;SDS011;5063;50.878;4.742;2023-04-03T00:10:56;9.13;;;5.80;;
10045;SDS011;5063;50.878;4.742;2023-04-03T00:13:22;6.23;;;5.30;;
10045;SDS011;5063;50.878;4.742;2023-04-03T00:15:48;7.60;;;5.23;;
10045;SDS011;5063;50.878;4.742;2023-04-03T00:18:14;7.60;;;5.83;;
10045;SDS011;5063;50.878;4.742;2023-04-03T00:20:40;11.27;;;6.40;;
10045;SDS011;5063;50.878;4.742;2023-04-03T00:23:06;9.97;;;6.20;;
10045;SDS011;5063;50.878;4.742;2023-04-03T00:25:31;9.27;;;5.70;;
10045;SDS011;5063;50.878;4.742;2023-04-03T00:27:57;9.53;;;6.53;;
10045;SDS011;5063;50.878;4.742;2023-04-03T00:30:24;7.40;;;6.10;;
10045;SDS011;5063;50.878;4.742;2023-04-03T00:32:50;7.77;;;6.10;;
10045;SDS011;5063;50.878;4.742;2023-04-03T00:35:17;8.60;;;6.10;;
10045;SDS011;5063;50.878;4.742;2023-04-03T00:37:44;9.17;;;6.77;;
10045;SDS011;5063;50.878;4.742;2023-04-03T00:40:11;7.83;;;5.97;;
10045;SDS011;5063;50.878;4.742;2023-04-03T00:42:41;8.27;;;5.53;;
10045;SDS011;5063;50.878;4.742;2023-04-03T00:47:43;8.13;;;6.50;;
10045;SDS011;5063;50.878;4.742;2023-04-03T00:50:09;8.47;;;5.90;;
10045;SDS011;5063;50.878;4.742;2023-04-03T00:52:35;7.43;;;6.23;;
10045;SDS011;5063;50.878;4.742;2023-04-03T00:55:06;8.13;;;6.10;;
10045;SDS011;5063;50.878;4.742;2023-04-03T00:57:34;10.37;;;6.07;;
10045;SDS011;5063;50.878;4.742;2023-04-03T01:00:08;8.33;;;5.73;;
10045;SDS011;5063;50.878;4.742;2023-04-03T01:02:35;9.37;;;6.17;;
10045;SDS011;5063;50.878;4.742;2023-04-03T01:05:02;6.20;;;5.40;;
10045;SDS011;5063;50.878;4.742;2023-04-03T01:07:31;12.60;;;6.53;;
10045;SDS011;5063;50.878;4.742;2023-04-03T01:10:00;7.73;;;5.70;;
10045;SDS011;5063;50.878;4.742;2023-04-03T01:12:32;10.00;;;5.70;;
10045;SDS011;5063;50.878;4.742;2023-04-03T01:15:01;7.57;;;6.23;;
10045;SDS011;5063;50.878;4.742;2023-04-03T01:25:46;9.40;;;6.33;;
10045;SDS011;5063;50.878;4.742;2023-04-03T01:28:17;7.30;;;6.20;;
10045;SDS011;5063;50.878;4.742;2023-04-03T01:33:40;9.00;;;6.87;;
10045;SDS011;5063;50.878;4.742;2023-04-03T01:36:06;9.77;;;6.20;;
10045;SDS011;5063;50.878;4.742;2023-04-03T01:38:35;8.30;;;6.30;;
10045;SDS011;5063;50.878;4.742;2023-04-03T01:41:01;6.93;;;5.53;;
10045;SDS011;5063;50.878;4.742;2023-04-03T01:43:27;9.23;;;6.17;;
10045;SDS011;5063;50.878;4.742;2023-04-03T01:45:52;9.13;;;6.17;;
10045;SDS011;5063;50.878;4.742;2023-04-03T01:48:20;9.10;;;5.80;;
10045;SDS011;5063;50.878;4.742;2023-04-03T01:50:46;7.43;;;6.50;;
10045;SDS011;5063;50.878;4.742;2023-04-03T01:53:11;7.70;;;5.93;;
10045;SDS011;5063;50.878;4.742;2023-04-03T01:55:37;6.57;;;5.87;;
10045;SDS011;5063;50.878;4.742;2023-04-03T01:58:03;7.53;;;5.60;;
10045;SDS011;5063;50.878;4.742;2023-04-03T02:00:29;6.43;;;5.83;;
10045;SDS011;5063;50.878;4.742;2023-04-03T02:02:55;8.43;;;5.47;;
10045;SDS011;5063;50.878;4.742;2023-04-03T02:05:22;6.23;;;5.63;;
10045;SDS011;5063;50.878;4.742;2023-04-03T02:07:47;6.67;;;5.43;;
10045;SDS011;5063;50.878;4.742;2023-04-03T02:10:13;11.07;;;5.23;;
10045;SDS011;5063;50.878;4.742;2023-04-03T02:12:39;7.23;;;5.73;;
10045;SDS011;5063;50.878;4.742;2023-04-03T02:15:05;5.10;;;4.60;;
10045;SDS011;5063;50.878;4.742;2023-04-03T02:17:31;7.03;;;5.70;;
10045;SDS011;5063;50.878;4.742;2023-04-03T02:19:57;4.87;;;4.33;;
10045;SDS011;5063;50.878;4.742;2023-04-03T02:22:23;7.10;;;5.50;;
10045;SDS011;5063;50.878;4.742;2023-04-03T02:24:48;8.03;;;5.10;;
10045;SDS011;5063;50.878;4.742;2023-04-03T02:27:14;10.63;;;4.90;;
10045;SDS011;5063;50.878;4.742;2023-04-03T02:29:40;8.87;;;5.03;;
10045;SDS011;5063;50.878;4.742;2023-04-03T02:32:06;6.57;;;5.07;;
10045;SDS011;5063;50.878;4.742;2023-04-03T02:34:32;7.47;;;5.67;;
10045;SDS011;5063;50.878;4.742;2023-04-03T02:36:58;5.83;;;4.90;;
10045;SDS011;5063;50.878;4.742;2023-04-03T02:39:24;8.07;;;5.40;;
10045;SDS011;5063;50.878;4.742;2023-04-03T02:41:49;7.63;;;5.27;;
10045;SDS011;5063;50.878;4.742;2023-04-03T02:44:15;6.27;;;5.67;;
10045;SDS011;5063;50.878;4.742;2023-04-03T02:46:41;5.87;;;4.60;;
10045;SDS011;5063;50.878;4.742;2023-04-03T02:49:07;5.43;;;4.93;;
10045;SDS011;5063;50.878;4.742;2023-04-03T02:51:33;6.37;;;4.93;;
10045;SDS011;5063;50.878;4.742;2023-04-03T02:53:58;5.40;;;4.87;;
10045;SDS011;5063;50.878;4.742;2023-04-03T02:56:24;7.90;;;6.17;;
10045;SDS011;5063;50.878;4.742;2023-04-03T02:58:52;6.03;;;4.77;;
10045;SDS011;5063;50.878;4.742;2023-04-03T03:01:18;5.43;;;4.83;;
10045;SDS011;5063;50.878;4.742;2023-04-03T03:03:44;4.93;;;4.53;;
10045;SDS011;5063;50.878;4.742;2023-04-03T03:06:10;6.07;;;5.27;;
10045;SDS011;5063;50.878;4.742;2023-04-03T03:08:37;6.33;;;5.33;;
10045;SDS011;5063;50.878;4.742;2023-04-03T03:11:03;11.43;;;5.37;;
10045;SDS011;5063;50.878;4.742;2023-04-03T03:13:30;8.63;;;5.13;;
10045;SDS011;5063;50.878;4.742;2023-04-03T03:15:56;5.67;;;5.17;;
10045;SDS011;5063;50.878;4.742;2023-04-03T03:18:22;9.50;;;6.77;;
10045;SDS011;5063;50.878;4.742;2023-04-03T03:20:55;6.37;;;5.77;;
10045;SDS011;5063;50.878;4.742;2023-04-03T03:23:22;7.87;;;5.80;;
10045;SDS011;5063;50.878;4.742;2023-04-03T03:25:53;9.40;;;6.53;;
10045;SDS011;5063;50.878;4.742;2023-04-03T03:28:24;8.07;;;5.87;;
10045;SDS011;5063;50.878;4.742;2023-04-03T03:30:50;6.27;;;5.67;;
10045;SDS011;5063;50.878;4.742;2023-04-03T03:33:16;7.07;;;6.10;;
10045;SDS011;5063;50.878;4.742;2023-04-03T03:35:42;8.07;;;6.80;;
10045;SDS011;5063;50.878;4.742;2023-04-03T03:38:08;8.77;;;6.53;;
10045;SDS011;5063;50.878;4.742;2023-04-03T03:40:34;9.90;;;6.47;;
10045;SDS011;5063;50.878;4.742;2023-04-03T03:43:00;7.87;;;6.90;;
10045;SDS011;5063;50.878;4.742;2023-04-03T03:45:25;11.90;;;7.60;;
10045;SDS011;5063;50.878;4.742;2023-04-03T03:47:51;8.77;;;6.73;;
10045;SDS011;5063;50.878;4.742;2023-04-03T03:50:17;7.37;;;6.67;;
10045;SDS011;5063;50.878;4.742;2023-04-03T03:52:43;8.53;;;7.40;;
10045;SDS011;5063;50.878;4.742;2023-04-03T03:55:09;12.70;;;7.43;;
10045;SDS011;5063;50.878;4.742;2023-04-03T03:57:35;9.73;;;7.40;;
10045;SDS011;5063;50.878;4.742;2023-04-03T04:00:01;8.33;;;6.93;;
10045;SDS011;5063;50.878;4.742;2023-04-03T04:02:28;13.03;;;7.90;;
10045;SDS011;5063;50.878;4.742;2023-04-03T04:04:54;14.20;;;8.20;;
10045;SDS011;5063;50.878;4.742;2023-04-03T04:07:19;12.30;;;7.80;;
10045;SDS011;5063;50.878;4.742;2023-04-03T04:09:45;11.83;;;7.60;;
10045;SDS011;5063;50.878;4.742;2023-04-03T04:12:11;14.07;;;8.00;;
10045;SDS011;5063;50.878;4.742;2023-04-03T04:14:36;9.00;;;7.43;;
10045;SDS011;5063;50.878;4.742;2023-04-03T04:17:02;10.43;;;7.63;;
10045;SDS011;5063;50.878;4.742;2023-04-03T04:19:28;10.83;;;7.63;;
10045;SDS011;5063;50.878;4.742;2023-04-03T04:21:54;8.77;;;7.63;;
10045;SDS011;5063;50.878;4.742;2023-04-03T04:24:20;9.63;;;8.20;;
10045;SDS011;5063;50.878;4.742;2023-04-03T04:26:48;9.97;;;7.57;;
10045;SDS011;5063;50.878;4.742;2023-04-03T04:29:13;9.63;;;7.50;;
10045;SDS011;5063;50.878;4.742;2023-04-03T04:31:39;14.13;;;9.00;;
10045;SDS011;5063;50.878;4.742;2023-04-03T04:34:05;10.13;;;7.70;;
10045;SDS011;5063;50.878;4.742;2023-04-03T04:36:31;15.30;;;8.43;;
10045;SDS011;5063;50.878;4.742;2023-04-03T04:38:56;11.37;;;8.10;;
10045;SDS011;5063;50.878;4.742;2023-04-03T04:41:23;9.60;;;8.67;;
10045;SDS011;5063;50.878;4.742;2023-04-03T04:43:50;13.57;;;8.20;;
10045;SDS011;5063;50.878;4.742;2023-04-03T04:46:15;8.50;;;7.47;;
10045;SDS011;5063;50.878;4.742;2023-04-03T04:48:41;11.00;;;8.53;;
10045;SDS011;5063;50.878;4.742;2023-04-03T04:51:07;10.03;;;8.43;;
10045;SDS011;5063;50.878;4.742;2023-04-03T04:53:33;12.63;;;8.70;;
10045;SDS011;5063;50.878;4.742;2023-04-03T04:55:59;15.33;;;8.67;;
10045;SDS011;5063;50.878;4.742;2023-04-03T04:58:25;12.33;;;8.77;;
10045;SDS011;5063;50.878;4.742;2023-04-03T05:01:07;12.60;;;8.83;;
10045;SDS011;5063;50.878;4.742;2023-04-03T05:03:34;10.63;;;7.23;;
10045;SDS011;5063;50.878;4.742;2023-04-03T05:06:01;11.47;;;8.73;;
10045;SDS011;5063;50.878;4.742;2023-04-03T05:08:27;9.73;;;8.13;;
10045;SDS011;5063;50.878;4.742;2023-04-03T05:10:52;11.57;;;8.90;;
10045;SDS011;5063;50.878;4.742;2023-04-03T05:13:19;14.07;;;9.33;;
10045;SDS011;5063;50.878;4.742;2023-04-03T05:15:45;15.23;;;8.67;;
10045;SDS011;5063;50.878;4.742;2023-04-03T05:18:11;13.43;;;8.93;;
10045;SDS011;5063;50.878;4.742;2023-04-03T05:20:37;13.27;;;8.70;;
10045;SDS011;5063;50.878;4.742;2023-04-03T05:23:03;11.43;;;8.60;;
10045;SDS011;5063;50.878;4.742;2023-04-03T05:25:29;13.07;;;9.93;;
10045;SDS011;5063;50.878;4.742;2023-04-03T05:27:55;13.20;;;9.20;;
10045;SDS011;5063;50.878;4.742;2023-04-03T05:30:21;13.80;;;10.03;;
10045;SDS011;5063;50.878;4.742;2023-04-03T05:32:46;11.40;;;9.40;;
10045;SDS011;5063;50.878;4.742;2023-04-03T05:35:12;15.13;;;10.30;;
10045;SDS011;5063;50.878;4.742;2023-04-03T05:37:38;11.33;;;9.60;;
10045;SDS011;5063;50.878;4.742;2023-04-03T05:40:04;11.20;;;9.77;;
10045;SDS011;5063;50.878;4.742;2023-04-03T05:42:31;12.10;;;9.10;;
10045;SDS011;5063;50.878;4.742;2023-04-03T05:44:57;11.23;;;9.90;;
10045;SDS011;5063;50.878;4.742;2023-04-03T05:47:22;12.60;;;10.23;;
10045;SDS011;5063;50.878;4.742;2023-04-03T05:49:48;15.97;;;10.37;;
10045;SDS011;5063;50.878;4.742;2023-04-03T05:52:22;13.90;;;10.20;;
10045;SDS011;5063;50.878;4.742;2023-04-03T05:54:51;16.83;;;10.33;;
10045;SDS011;5063;50.878;4.742;2023-04-03T05:57:17;12.37;;;11.07;;
10045;SDS011;5063;50.878;4.742;2023-04-03T05:59:44;16.47;;;10.57;;
10045;SDS011;5063;50.878;4.742;2023-04-03T06:02:16;14.87;;;10.77;;
10045;SDS011;5063;50.878;4.742;2023-04-03T06:04:46;14.27;;;10.57;;
10045;SDS011;5063;50.878;4.742;2023-04-03T06:07:17;16.60;;;11.80;;
10045;SDS011;5063;50.878;4.742;2023-04-03T06:09:48;14.37;;;11.10;;
10045;SDS011;5063;50.878;4.742;2023-04-03T06:12:15;15.33;;;10.83;;
10045;SDS011;5063;50.878;4.742;2023-04-03T06:14:41;15.90;;;11.00;;
10045;SDS011;5063;50.878;4.742;2023-04-03T06:17:07;16.37;;;11.13;;
10045;SDS011;5063;50.878;4.742;2023-04-03T06:19:34;12.40;;;10.60;;
10045;SDS011;5063;50.878;4.742;2023-04-03T06:22:01;13.40;;;10.47;;
10045;SDS011;5063;50.878;4.742;2023-04-03T06:24:28;13.30;;;10.90;;
10045;SDS011;5063;50.878;4.742;2023-04-03T06:26:55;14.90;;;11.20;;
10045;SDS011;5063;50.878;4.742;2023-04-03T06:29:21;19.73;;;10.97;;
10045;SDS011;5063;50.878;4.742;2023-04-03T06:31:46;14.50;;;9.97;;
10045;SDS011;5063;50.878;4.742;2023-04-03T06:34:13;14.40;;;10.63;;
10045;SDS011;5063;50.878;4.742;2023-04-03T06:36:39;10.93;;;9.80;;
10045;SDS011;5063;50.878;4.742;2023-04-03T06:39:05;12.87;;;10.57;;
10045;SDS011;5063;50.878;4.742;2023-04-03T06:41:32;16.73;;;10.97;;
10045;SDS011;5063;50.878;4.742;2023-04-03T06:43:58;18.63;;;13.30;;
10045;SDS011;5063;50.878;4.742;2023-04-03T06:46:25;16.97;;;13.57;;
10045;SDS011;5063;50.878;4.742;2023-04-03T06:48:52;13.20;;;11.50;;
10045;SDS011;5063;50.878;4.742;2023-04-03T06:51:22;11.83;;;9.43;;
10045;SDS011;5063;50.878;4.742;2023-04-03T06:53:53;10.40;;;8.80;;
10045;SDS011;5063;50.878;4.742;2023-04-03T06:56:20;10.87;;;8.30;;
10045;SDS011;5063;50.878;4.742;2023-04-03T06:58:47;9.73;;;7.77;;
10045;SDS011;5063;50.878;4.742;2023-04-03T07:01:15;11.13;;;7.67;;
10045;SDS011;5063;50.878;4.742;2023-04-03T07:03:42;7.87;;;6.87;;
10045;SDS011;5063;50.878;4.742;2023-04-03T07:06:09;7.37;;;6.60;;
10045;SDS011;5063;50.878;4.742;2023-04-03T07:08:37;8.47;;;6.80;;
10045;SDS011;5063;50.878;4.742;2023-04-03T07:11:03;6.97;;;6.27;;
10045;SDS011;5063;50.878;4.742;2023-04-03T07:13:29;14.50;;;7.30;;
10045;SDS011;5063;50.878;4.742;2023-04-03T07:15:55;7.83;;;5.30;;
10045;SDS011;5063;50.878;4.742;2023-04-03T07:18:21;7.27;;;5.10;;
10045;SDS011;5063;50.878;4.742;2023-04-03T07:20:48;7.10;;;5.47;;
10045;SDS011;5063;50.878;4.742;2023-04-03T07:23:14;9.03;;;5.83;;
10045;SDS011;5063;50.878;4.742;2023-04-03T07:25:47;7.10;;;5.50;;
10045;SDS011;5063;50.878;4.742;2023-04-03T07:28:14;6.07;;;4.90;;
10045;SDS011;5063;50.878;4.742;2023-04-03T07:30:51;7.80;;;5.80;;
10045;SDS011;5063;50.878;4.742;2023-04-03T07:33:19;6.80;;;4.87;;
10045;SDS011;5063;50.878;4.742;2023-04-03T07:35:47;5.30;;;4.50;;
10045;SDS011;5063;50.878;4.742;2023-04-03T07:38:13;9.10;;;4.97;;
10045;SDS011;5063;50.878;4.742;2023-04-03T07:40:39;8.37;;;5.30;;
10045;SDS011;5063;50.878;4.742;2023-04-03T07:43:05;7.00;;;5.03;;
10045;SDS011;5063;50.878;4.742;2023-04-03T07:45:31;5.17;;;4.67;;
10045;SDS011;5063;50.878;4.742;2023-04-03T07:47:59;5.63;;;4.37;;
10045;SDS011;5063;50.878;4.742;2023-04-03T07:50:25;5.33;;;4.07;;
10045;SDS011;5063;50.878;4.742;2023-04-03T07:52:52;7.53;;;4.13;;
10045;SDS011;5063;50.878;4.742;2023-04-03T07:55:19;6.77;;;4.27;;
10045;SDS011;5063;50.878;4.742;2023-04-03T07:57:45;6.87;;;4.67;;
10045;SDS011;5063;50.878;4.742;2023-04-03T08:00:11;4.77;;;4.13;;
10045;SDS011;5063;50.878;4.742;2023-04-03T08:02:37;4.87;;;4.23;;
10045;SDS011;5063;50.878;4.742;2023-04-03T08:05:03;5.03;;;4.00;;
10045;SDS011;5063;50.878;4.742;2023-04-03T08:07:29;5.60;;;4.03;;
10045;SDS011;5063;50.878;4.742;2023-04-03T08:09:55;6.03;;;4.40;;
10045;SDS011;5063;50.878;4.742;2023-04-03T08:12:21;8.13;;;4.47;;
10045;SDS011;5063;50.878;4.742;2023-04-03T08:14:46;5.07;;;3.80;;
10045;SDS011;5063;50.878;4.742;2023-04-03T08:17:12;7.97;;;4.20;;
10045;SDS011;5063;50.878;4.742;2023-04-03T08:19:39;4.73;;;3.40;;
10045;SDS011;5063;50.878;4.742;2023-04-03T08:22:05;5.13;;;3.60;;
10045;SDS011;5063;50.878;4.742;2023-04-03T08:24:34;7.90;;;4.20;;
10045;SDS011;5063;50.878;4.742;2023-04-03T08:27:00;7.93;;;3.97;;
10045;SDS011;5063;50.878;4.742;2023-04-03T08:29:26;5.73;;;3.73;;
10045;SDS011;5063;50.878;4.742;2023-04-03T08:31:52;3.87;;;3.40;;
10045;SDS011;5063;50.878;4.742;2023-04-03T08:34:18;4.07;;;3.47;;
10045;SDS011;5063;50.878;4.742;2023-04-03T08:36:44;6.13;;;3.50;;
10045;SDS011;5063;50.878;4.742;2023-04-03T08:39:10;5.30;;;3.67;;
10045;SDS011;5063;50.878;4.742;2023-04-03T08:41:38;4.53;;;3.30;;
10045;SDS011;5063;50.878;4.742;2023-04-03T08:49:53;6.47;;;3.30;;
10045;SDS011;5063;50.878;4.742;2023-04-03T08:52:39;5.43;;;3.30;;
10045;SDS011;5063;50.878;4.742;2023-04-03T08:58:02;5.43;;;3.50;;
10045;SDS011;5063;50.878;4.742;2023-04-03T09:00:41;3.53;;;2.60;;
10045;SDS011;5063;50.878;4.742;2023-04-03T09:03:15;4.60;;;2.97;;
10045;SDS011;5063;50.878;4.742;2023-04-03T09:11:24;5.97;;;2.80;;
10045;SDS011;5063;50.878;4.742;2023-04-03T09:16:57;5.23;;;3.00;;
10045;SDS011;5063;50.878;4.742;2023-04-03T09:22:17;5.73;;;2.77;;
10045;SDS011;5063;50.878;4.742;2023-04-03T09:24:50;7.80;;;3.17;;
10045;SDS011;5063;50.878;4.742;2023-04-03T09:27:27;4.07;;;2.43;;
10045;SDS011;5063;50.878;4.742;2023-04-03T09:29:53;3.43;;;2.80;;
10045;SDS011;5063;50.878;4.742;2023-04-03T09:32:26;5.23;;;2.80;;
10045;SDS011;5063;50.878;4.742;2023-04-03T09:34:54;3.53;;;2.40;;
10045;SDS011;5063;50.878;4.742;2023-04-03T09:37:34;7.17;;;2.87;;
10045;SDS011;5063;50.878;4.742;2023-04-03T09:42:58;4.30;;;3.17;;
10045;SDS011;5063;50.878;4.742;2023-04-03T09:45:27;4.50;;;3.13;;
10045;SDS011;5063;50.878;4.742;2023-04-03T09:48:05;5.50;;;3.07;;
10045;SDS011;5063;50.878;4.742;2023-04-03T09:51:00;3.87;;;2.60;;
10045;SDS011;5063;50.878;4.742;2023-04-03T09:56:26;4.87;;;2.83;;
10045;SDS011;5063;50.878;4.742;2023-04-03T10:01:31;5.23;;;2.73;;
10045;SDS011;5063;50.878;4.742;2023-04-03T10:04:17;6.87;;;2.90;;
10045;SDS011;5063;50.878;4.742;2023-04-03T10:06:45;4.93;;;2.77;;
10045;SDS011;5063;50.878;4.742;2023-04-03T10:09:20;5.50;;;3.13;;
10045;SDS011;5063;50.878;4.742;2023-04-03T10:14:56;3.90;;;2.73;;
10045;SDS011;5063;50.878;4.742;2023-04-03T10:20:18;6.87;;;3.07;;
10045;SDS011;5063;50.878;4.742;2023-04-03T10:23:17;3.27;;;2.37;;
10045;SDS011;5063;50.878;4.742;2023-04-03T10:36:54;3.90;;;2.37;;
10045;SDS011;5063;50.878;4.742;2023-04-03T10:39:39;4.13;;;2.60;;
10045;SDS011;5063;50.878;4.742;2023-04-03T10:50:14;3.17;;;1.93;;
10045;SDS011;5063;50.878;4.742;2023-04-03T10:53:14;1.80;;;1.67;;
10045;SDS011;5063;50.878;4.742;2023-04-03T10:58:43;4.03;;;2.23;;
10045;SDS011;5063;50.878;4.742;2023-04-03T11:01:36;4.70;;;2.00;;
10045;SDS011;5063;50.878;4.742;2023-04-03T11:04:05;4.30;;;1.70;;
10045;SDS011;5063;50.878;4.742;2023-04-03T11:06:34;2.97;;;1.80;;
10045;SDS011;5063;50.878;4.742;2023-04-03T11:09:18;3.33;;;1.67;;
10045;SDS011;5063;50.878;4.742;2023-04-03T11:11:48;2.00;;;1.73;;
10045;SDS011;5063;50.878;4.742;2023-04-03T11:17:01;3.93;;;1.93;;
10045;SDS011;5063;50.878;4.742;2023-04-03T11:19:34;2.43;;;1.80;;
10045;SDS011;5063;50.878;4.742;2023-04-03T11:22:16;3.17;;;1.60;;
10045;SDS011;5063;50.878;4.742;2023-04-03T11:24:57;3.60;;;1.57;;
10045;SDS011;5063;50.878;4.742;2023-04-03T11:27:30;3.40;;;1.60;;
10045;SDS011;5063;50.878;4.742;2023-04-03T11:30:05;1.90;;;1.30;;
10045;SDS011;5063;50.878;4.742;2023-04-03T11:35:24;3.87;;;1.67;;
10045;SDS011;5063;50.878;4.742;2023-04-03T11:37:52;3.17;;;1.67;;
10045;SDS011;5063;50.878;4.742;2023-04-03T11:40:25;4.90;;;1.70;;
10045;SDS011;5063;50.878;4.742;2023-04-03T11:48:42;2.40;;;1.70;;
10045;SDS011;5063;50.878;4.742;2023-04-03T11:50:54;5.97;;;2.50;;
10045;SDS011;5063;50.878;4.742;2023-04-03T11:56:03;6.20;;;1.87;;
10045;SDS011;5063;50.878;4.742;2023-04-03T12:04:17;3.33;;;1.33;;
10045;SDS011;5063;50.878;4.742;2023-04-03T12:09:28;2.33;;;1.50;;
10045;SDS011;5063;50.878;4.742;2023-04-03T12:12:27;2.20;;;1.43;;
10045;SDS011;5063;50.878;4.742;2023-04-03T12:14:53;5.20;;;1.73;;
10045;SDS011;5063;50.878;4.742;2023-04-03T12:17:25;1.63;;;1.33;;
10045;SDS011;5063;50.878;4.742;2023-04-03T12:19:52;2.07;;;1.33;;
10045;SDS011;5063;50.878;4.742;2023-04-03T12:22:21;2.87;;;1.57;;
10045;SDS011;5063;50.878;4.742;2023-04-03T12:24:49;1.93;;;1.43;;
10045;SDS011;5063;50.878;4.742;2023-04-03T12:30:12;1.33;;;1.23;;
10045;SDS011;5063;50.878;4.742;2023-04-03T12:32:45;1.50;;;1.40;;
10045;SDS011;5063;50.878;4.742;2023-04-03T12:35:48;1.63;;;1.33;;
10045;SDS011;5063;50.878;4.742;2023-04-03T12:38:37;3.73;;;1.40;;
10045;SDS011;5063;50.878;4.742;2023-04-03T12:44:48;2.83;;;1.30;;
10045;SDS011;5063;50.878;4.742;2023-04-03T12:47:35;3.60;;;1.30;;
10045;SDS011;5063;50.878;4.742;2023-04-03T12:50:03;3.33;;;1.50;;
10045;SDS011;5063;50.878;4.742;2023-04-03T12:52:45;3.30;;;1.60;;
10045;SDS011;5063;50.878;4.742;2023-04-03T12:55:17;2.10;;;1.50;;
10045;SDS011;5063;50.878;4.742;2023-04-03T12:57:45;2.10;;;1.50;;
10045;SDS011;5063;50.878;4.742;2023-04-03T13:00:18;2.60;;;1.43;;
10045;SDS011;5063;50.878;4.742;2023-04-03T13:02:44;2.33;;;2.00;;
10045;SDS011;5063;50.878;4.742;2023-04-03T13:05:14;2.87;;;1.87;;
10045;SDS011;5063;50.878;4.742;2023-04-03T13:07:43;2.57;;;1.80;;
10045;SDS011;5063;50.878;4.742;2023-04-03T13:10:15;4.47;;;1.70;;
10045;SDS011;5063;50.878;4.742;2023-04-03T13:13:06;2.43;;;1.80;;
10045;SDS011;5063;50.878;4.742;2023-04-03T13:15:46;2.63;;;1.87;;
10045;SDS011;5063;50.878;4.742;2023-04-03T13:18:24;2.27;;;1.73;;
10045;SDS011;5063;50.878;4.742;2023-04-03T13:23:45;4.13;;;1.77;;
10045;SDS011;5063;50.878;4.742;2023-04-03T13:26:15;3.47;;;1.70;;
10045;SDS011;5063;50.878;4.742;2023-04-03T13:28:42;2.87;;;1.90;;
10045;SDS011;5063;50.878;4.742;2023-04-03T13:33:40;2.67;;;1.90;;
10045;SDS011;5063;50.878;4.742;2023-04-03T13:36:18;1.50;;;1.40;;
10045;SDS011;5063;50.878;4.742;2023-04-03T13:41:48;2.57;;;1.70;;
10045;SDS011;5063;50.878;4.742;2023-04-03T13:46:42;3.10;;;1.40;;
10045;SDS011;5063;50.878;4.742;2023-04-03T13:49:19;3.30;;;1.67;;
10045;SDS011;5063;50.878;4.742;2023-04-03T13:51:56;1.93;;;1.30;;
10045;SDS011;5063;50.878;4.742;2023-04-03T13:54:23;2.37;;;1.80;;
10045;SDS011;5063;50.878;4.742;2023-04-03T13:56:55;1.80;;;1.50;;
10045;SDS011;5063;50.878;4.742;2023-04-03T13:59:24;2.40;;;1.50;;
10045;SDS011;5063;50.878;4.742;2023-04-03T14:04:29;2.60;;;1.80;;
10045;SDS011;5063;50.878;4.742;2023-04-03T14:06:55;2.53;;;1.83;;
10045;SDS011;5063;50.878;4.742;2023-04-03T14:09:22;1.40;;;1.30;;
10045;SDS011;5063;50.878;4.742;2023-04-03T14:11:52;3.20;;;1.53;;
10045;SDS011;5063;50.878;4.742;2023-04-03T14:14:21;3.23;;;1.67;;
10045;SDS011;5063;50.878;4.742;2023-04-03T14:16:52;1.97;;;1.43;;
10045;SDS011;5063;50.878;4.742;2023-04-03T14:19:22;2.33;;;1.33;;
10045;SDS011;5063;50.878;4.742;2023-04-03T14:21:51;3.43;;;1.53;;
10045;SDS011;5063;50.878;4.742;2023-04-03T14:24:18;3.37;;;1.37;;
10045;SDS011;5063;50.878;4.742;2023-04-03T14:26:44;3.20;;;1.50;;
10045;SDS011;5063;50.878;4.742;2023-04-03T14:29:11;1.67;;;1.30;;
10045;SDS011;5063;50.878;4.742;2023-04-03T14:31:39;3.77;;;2.03;;
10045;SDS011;5063;50.878;4.742;2023-04-03T14:34:05;3.87;;;1.83;;
10045;SDS011;5063;50.878;4.742;2023-04-03T14:36:31;3.73;;;1.63;;
10045;SDS011;5063;50.878;4.742;2023-04-03T14:38:58;1.60;;;1.50;;
10045;SDS011;5063;50.878;4.742;2023-04-03T14:41:25;1.77;;;1.60;;
10045;SDS011;5063;50.878;4.742;2023-04-03T14:43:52;2.23;;;1.60;;
10045;SDS011;5063;50.878;4.742;2023-04-03T14:46:24;6.17;;;1.90;;
10045;SDS011;5063;50.878;4.742;2023-04-03T14:48:53;2.97;;;1.70;;
10045;SDS011;5063;50.878;4.742;2023-04-03T14:51:19;3.33;;;1.80;;
10045;SDS011;5063;50.878;4.742;2023-04-03T14:53:45;2.17;;;1.77;;
10045;SDS011;5063;50.878;4.742;2023-04-03T14:56:12;3.13;;;1.90;;
10045;SDS011;5063;50.878;4.742;2023-04-03T14:58:40;2.37;;;1.67;;
10045;SDS011;5063;50.878;4.742;2023-04-03T15:01:06;2.07;;;1.50;;
10045;SDS011;5063;50.878;4.742;2023-04-03T15:03:34;3.50;;;1.60;;
10045;SDS011;5063;50.878;4.742;2023-04-03T15:05:59;5.77;;;1.97;;
10045;SDS011;5063;50.878;4.742;2023-04-03T15:08:26;2.30;;;1.83;;
10045;SDS011;5063;50.878;4.742;2023-04-03T15:10:56;2.83;;;1.93;;
10045;SDS011;5063;50.878;4.742;2023-04-03T15:13:22;3.13;;;2.20;;
10045;SDS011;5063;50.878;4.742;2023-04-03T15:15:49;3.33;;;1.97;;
10045;SDS011;5063;50.878;4.742;2023-04-03T15:18:23;6.47;;;1.90;;
10045;SDS011;5063;50.878;4.742;2023-04-03T15:20:51;2.43;;;1.90;;
10045;SDS011;5063;50.878;4.742;2023-04-03T15:23:17;1.90;;;1.80;;
10045;SDS011;5063;50.878;4.742;2023-04-03T15:25:44;2.20;;;1.90;;
10045;SDS011;5063;50.878;4.742;2023-04-03T15:28:19;2.67;;;2.00;;
10045;SDS011;5063;50.878;4.742;2023-04-03T15:31:03;5.77;;;2.30;;
10045;SDS011;5063;50.878;4.742;2023-04-03T15:33:31;2.90;;;1.80;;
10045;SDS011;5063;50.878;4.742;2023-04-03T15:35:57;3.10;;;2.07;;
10045;SDS011;5063;50.878;4.742;2023-04-03T15:38:23;3.97;;;2.20;;
10045;SDS011;5063;50.878;4.742;2023-04-03T15:40:49;2.73;;;2.00;;
10045;SDS011;5063;50.878;4.742;2023-04-03T15:43:15;5.20;;;1.93;;
10045;SDS011;5063;50.878;4.742;2023-04-03T15:45:41;4.20;;;2.33;;
10045;SDS011;5063;50.878;4.742;2023-04-03T15:48:08;2.83;;;2.20;;
10045;SDS011;5063;50.878;4.742;2023-04-03T15:50:35;4.53;;;2.27;;
10045;SDS011;5063;50.878;4.742;2023-04-03T15:53:01;3.23;;;2.30;;
10045;SDS011;5063;50.878;4.742;2023-04-03T15:55:31;4.87;;;2.43;;
10045;SDS011;5063;50.878;4.742;2023-04-03T15:57:59;4.30;;;1.97;;
10045;SDS011;5063;50.878;4.742;2023-04-03T16:00:25;3.13;;;1.90;;
10045;SDS011;5063;50.878;4.742;2023-04-03T16:03:10;2.87;;;2.00;;
10045;SDS011;5063;50.878;4.742;2023-04-03T16:05:39;6.77;;;2.40;;
10045;SDS011;5063;50.878;4.742;2023-04-03T16:08:05;7.33;;;2.40;;
10045;SDS011;5063;50.878;4.742;2023-04-03T16:10:33;4.93;;;2.40;;
10045;SDS011;5063;50.878;4.742;2023-04-03T16:13:02;3.87;;;2.83;;
10045;SDS011;5063;50.878;4.742;2023-04-03T16:15:29;5.17;;;1.90;;
10045;SDS011;5063;50.878;4.742;2023-04-03T16:17:56;4.50;;;1.90;;
10045;SDS011;5063;50.878;4.742;2023-04-03T16:20:23;2.20;;;2.00;;
10045;SDS011;5063;50.878;4.742;2023-04-03T16:22:50;3.27;;;2.13;;
10045;SDS011;5063;50.878;4.742;2023-04-03T16:25:16;3.50;;;2.20;;
10045;SDS011;5063;50.878;4.742;2023-04-03T16:27:42;5.73;;;2.13;;
10045;SDS011;5063;50.878;4.742;2023-04-03T16:30:09;4.40;;;1.93;;
10045;SDS011;5063;50.878;4.742;2023-04-03T16:32:35;4.17;;;1.90;;
10045;SDS011;5063;50.878;4.742;2023-04-03T16:35:03;3.03;;;1.80;;
10045;SDS011;5063;50.878;4.742;2023-04-03T16:37:30;5.40;;;2.00;;
10045;SDS011;5063;50.878;4.742;2023-04-03T16:39:56;4.93;;;1.93;;
10045;SDS011;5063;50.878;4.742;2023-04-03T16:42:23;4.83;;;2.17;;
10045;SDS011;5063;50.878;4.742;2023-04-03T16:44:50;5.17;;;2.27;;
10045;SDS011;5063;50.878;4.742;2023-04-03T16:47:16;4.50;;;2.03;;
10045;SDS011;5063;50.878;4.742;2023-04-03T16:49:44;6.60;;;2.10;;
10045;SDS011;5063;50.878;4.742;2023-04-03T16:52:10;2.57;;;1.87;;
10045;SDS011;5063;50.878;4.742;2023-04-03T16:54:36;2.87;;;1.70;;
10045;SDS011;5063;50.878;4.742;2023-04-03T16:57:02;2.77;;;2.00;;
10045;SDS011;5063;50.878;4.742;2023-04-03T16:59:27;4.00;;;2.13;;